Time;durP1;ratioP1;P1;durP2;ratioP2;P2;SDS_P1;SDS_P2;PMS_P1;PMS_P2;Temp;Humidity;BMP_temperature;BMP_pressure;BME280_temperature;BME280_humidity;BME280_pressure;Samples;Min_cycle;Max_cycle;Signal;HPM_P1;HPM_P2
2023/10/15 00:00:42;;;;;;;19.77;11.70;;;18.40;99.90;;;;;;5024394;28;20774;-74
2023/10/15 00:03:08;;;;;;;17.37;12.00;;;18.40;99.90;;;;;;5026384;28;20354;-78
2023/10/15 00:05:35;;;;;;;18.73;13.10;;;18.40;99.90;;;;;;5025640;28;20563;-74
2023/10/15 00:08:01;;;;;;;15.07;11.73;;;18.40;99.90;;;;;;5026050;28;20175;-86
2023/10/15 00:10:30;;;;;;;17.50;12.33;;;18.30;99.90;;;;;;5026965;28;20464;-74
2023/10/15 00:12:57;;;;;;;20.30;13.07;;;18.30;99.90;;;;;;5030031;28;20429;-75
2023/10/15 00:15:28;;;;;;;17.03;12.37;;;18.30;99.90;;;;;;5029758;28;20568;-74
2023/10/15 00:18:00;;;;;;;20.40;13.13;;;18.30;99.90;;;;;;5028815;28;20482;-74
2023/10/15 00:20:37;;;;;;;19.97;11.80;;;18.20;99.90;;;;;;5028432;28;20491;-86
2023/10/15 00:23:06;;;;;;;17.60;12.23;;;18.20;99.90;;;;;;5028507;28;20427;-86
2023/10/15 00:25:38;;;;;;;16.20;11.80;;;18.20;99.90;;;;;;5029936;28;20956;-86
2023/10/15 00:28:11;;;;;;;16.77;11.60;;;18.20;99.90;;;;;;5029752;28;20483;-75
2023/10/15 00:30:37;;;;;;;18.80;11.40;;;18.10;99.90;;;;;;5029721;28;20466;-86
2023/10/15 00:33:06;;;;;;;21.33;12.13;;;18.10;99.90;;;;;;5029418;28;20996;-86
2023/10/15 00:35:35;;;;;;;17.97;12.63;;;18.00;99.90;;;;;;5029366;28;20491;-75
2023/10/15 00:38:07;;;;;;;18.93;12.77;;;18.00;99.90;;;;;;5044918;28;20402;-87
2023/10/15 00:40:37;;;;;;;17.83;12.60;;;18.00;99.90;;;;;;5029634;28;20794;-76
2023/10/15 00:43:06;;;;;;;18.73;13.03;;;18.00;99.90;;;;;;5029426;28;20570;-74
2023/10/15 00:45:51;;;;;;;16.10;11.63;;;18.00;99.90;;;;;;5027764;28;20547;-75
2023/10/15 00:48:27;;;;;;;21.57;13.80;;;18.00;99.90;;;;;;5029709;28;20483;-87
2023/10/15 00:50:54;;;;;;;23.93;13.07;;;18.00;99.90;;;;;;5028648;28;20443;-86
2023/10/15 00:53:22;;;;;;;28.00;13.83;;;18.00;99.90;;;;;;5028481;28;20909;-86
2023/10/15 00:56:05;;;;;;;16.73;12.80;;;18.00;99.90;;;;;;5029058;28;20571;-86
2023/10/15 01:03:48;;;;;;;17.03;12.37;;;18.00;99.90;;;;;;5029362;28;20401;-87
2023/10/15 01:06:16;;;;;;;21.17;12.73;;;18.00;99.90;;;;;;5027764;28;20466;-75
2023/10/15 01:08:42;;;;;;;16.80;13.57;;;18.00;99.90;;;;;;5028994;28;20412;-75
2023/10/15 01:11:09;;;;;;;98.00;28.77;;;18.00;99.90;;;;;;5027920;28;20844;-87
2023/10/15 01:13:36;;;;;;;1999.90;999.90;;;18.00;99.90;;;;;;5060818;28;20409;-75
2023/10/15 01:16:05;;;;;;;108.27;19.77;;;18.00;99.90;;;;;;5028506;28;20494;-75
2023/10/15 01:18:31;;;;;;;86.10;17.87;;;18.10;99.90;;;;;;5027530;28;20432;-87
2023/10/15 01:21:01;;;;;;;1428.87;687.73;;;18.10;99.90;;;;;;5028190;28;20832;-87
2023/10/15 01:26:23;;;;;;;18.67;12.00;;;18.20;99.90;;;;;;5028324;28;20473;-86
2023/10/15 01:28:51;;;;;;;17.00;11.80;;;18.30;99.90;;;;;;5027756;28;20417;-74
2023/10/15 01:31:17;;;;;;;85.97;24.90;;;18.20;99.90;;;;;;5028548;28;21028;-74
2023/10/15 01:33:46;;;;;;;183.67;52.93;;;18.30;99.90;;;;;;5027297;28;20503;-86
2023/10/15 01:36:19;;;;;;;18.00;11.77;;;18.30;99.90;;;;;;5028152;28;20962;-87
2023/10/15 01:38:45;;;;;;;18.63;12.03;;;18.30;99.90;;;;;;5028578;28;20542;-87
2023/10/15 01:41:15;;;;;;;16.53;11.97;;;18.30;99.90;;;;;;5028134;28;20486;-74
2023/10/15 01:43:46;;;;;;;32.33;12.70;;;18.30;99.90;;;;;;5028346;28;20436;-86
2023/10/15 01:46:20;;;;;;;22.57;11.63;;;18.40;99.90;;;;;;5026579;28;20468;-74
2023/10/15 01:48:46;;;;;;;19.80;12.03;;;18.40;99.90;;;;;;5028553;28;20470;-87
2023/10/15 01:51:16;;;;;;;19.20;11.30;;;18.40;99.90;;;;;;5027639;28;20441;-86
2023/10/15 01:53:45;;;;;;;25.33;11.90;;;18.40;99.90;;;;;;5027238;28;20385;-87
2023/10/15 01:56:17;;;;;;;43.43;12.07;;;18.50;99.90;;;;;;5028111;28;20479;-86
2023/10/15 01:58:44;;;;;;;33.53;11.87;;;18.40;99.90;;;;;;5028296;28;20393;-74
2023/10/15 02:01:31;;;;;;;23.07;11.47;;;18.40;99.90;;;;;;5026391;28;20534;-86
2023/10/15 02:03:58;;;;;;;29.70;12.30;;;18.40;99.90;;;;;;5026747;28;20424;-74
2023/10/15 02:06:27;;;;;;;23.03;11.07;;;18.40;99.90;;;;;;5027453;28;20460;-75
2023/10/15 02:08:54;;;;;;;19.70;11.13;;;18.40;99.90;;;;;;5026597;28;20409;-74
2023/10/15 02:11:23;;;;;;;17.93;11.17;;;18.40;99.90;;;;;;5025934;28;20508;-86
2023/10/15 02:13:50;;;;;;;12.47;9.20;;;18.40;99.90;;;;;;5027428;28;20409;-86
2023/10/15 02:16:17;;;;;;;17.03;8.80;;;18.40;99.90;;;;;;5027739;28;20444;-74
2023/10/15 02:18:47;;;;;;;14.00;8.37;;;18.40;99.90;;;;;;5027787;28;20425;-87
2023/10/15 02:21:16;;;;;;;12.23;7.70;;;18.40;99.90;;;;;;5027080;28;20957;-74
2023/10/15 02:23:50;;;;;;;15.93;8.40;;;18.50;99.90;;;;;;5027845;28;20455;-86
2023/10/15 02:26:18;;;;;;;13.53;7.90;;;18.50;99.90;;;;;;5025975;28;21063;-87
2023/10/15 02:28:44;;;;;;;15.27;8.93;;;18.50;99.90;;;;;;5028176;28;20691;-75
2023/10/15 02:33:36;;;;;;;10.13;4.97;;;18.50;99.90;;;;;;5026914;28;20467;-79
2023/10/15 02:36:09;;;;;;;7.67;4.13;;;18.60;99.90;;;;;;5025386;28;20229;-74
2023/10/15 02:38:38;;;;;;;5.80;3.40;;;18.60;99.90;;;;;;5027576;28;20398;-74
2023/10/15 02:41:05;;;;;;;6.60;2.70;;;18.60;99.90;;;;;;5025576;28;20800;-75
2023/10/15 02:43:32;;;;;;;6.30;1.53;;;18.60;99.90;;;;;;5025918;28;20451;-86
2023/10/15 02:46:00;;;;;;;3.90;2.43;;;18.60;99.90;;;;;;5025386;28;20510;-75
2023/10/15 02:48:27;;;;;;;22.37;3.60;;;18.60;99.90;;;;;;5027401;28;20416;-75
2023/10/15 02:51:26;;;;;;;5.60;2.53;;;18.60;99.90;;;;;;5026449;28;20441;-80
2023/10/15 02:53:52;;;;;;;3.63;2.17;;;18.60;99.90;;;;;;5025350;28;20425;-75
2023/10/15 02:56:22;;;;;;;2.20;1.13;;;18.70;99.90;;;;;;5027430;28;20982;-75
2023/10/15 02:58:49;;;;;;;0.83;0.73;;;18.70;99.90;;;;;;5026772;28;20432;-75
2023/10/15 03:01:23;;;;;;;1.60;1.27;;;18.80;99.90;;;;;;5026325;28;20464;-87
2023/10/15 03:03:50;;;;;;;0.80;0.80;;;18.80;99.90;;;;;;5026954;28;20925;-86
2023/10/15 03:06:26;;;;;;;0.60;0.60;;;18.80;99.90;;;;;;5058602;28;20453;-85
2023/10/15 03:08:53;;;;;;;0.30;0.20;;;18.80;99.90;;;;;;5025757;28;20417;-86
2023/10/15 03:11:20;;;;;;;0.30;0.20;;;18.80;99.90;;;;;;5026126;28;20478;-85
2023/10/15 03:13:51;;;;;;;0.30;0.20;;;18.80;99.90;;;;;;5026316;28;20418;-86
2023/10/15 03:16:18;;;;;;;0.50;0.40;;;18.80;99.90;;;;;;5025374;28;20461;-74
2023/10/15 03:18:48;;;;;;;0.30;0.20;;;18.80;99.90;;;;;;5025616;28;20414;-75
2023/10/15 03:21:25;;;;;;;0.30;0.20;;;18.80;99.90;;;;;;5026350;28;20613;-75
2023/10/15 03:24:02;;;;;;;0.30;0.20;;;18.80;99.90;;;;;;5026607;28;20391;-86
2023/10/15 03:26:33;;;;;;;0.30;0.30;;;18.80;99.90;;;;;;5026498;28;20545;-75
2023/10/15 03:29:06;;;;;;;0.30;0.20;;;18.80;99.90;;;;;;5026442;28;20445;-86
2023/10/15 03:31:32;;;;;;;0.30;0.20;;;18.80;99.90;;;;;;5025197;28;20433;-86
2023/10/15 03:34:12;;;;;;;1.90;1.13;;;18.80;99.90;;;;;;5026255;28;20419;-75
2023/10/15 03:39:15;;;;;;;0.50;0.43;;;18.80;99.90;;;;;;5026415;28;20409;-74
2023/10/15 03:41:42;;;;;;;0.30;0.20;;;18.80;99.90;;;;;;5026355;28;20456;-86
2023/10/15 03:44:10;;;;;;;0.50;0.50;;;18.80;99.90;;;;;;5025588;28;20414;-85
2023/10/15 03:46:37;;;;;;;1.03;0.83;;;18.80;99.90;;;;;;5025969;28;20471;-86
2023/10/15 03:49:08;;;;;;;0.73;0.73;;;18.90;99.90;;;;;;5026054;28;20418;-74
2023/10/15 03:51:48;;;;;;;0.30;0.20;;;18.90;99.90;;;;;;5026449;28;20421;-85
2023/10/15 03:54:14;;;;;;;0.30;0.20;;;18.90;99.90;;;;;;5026047;28;20449;-74
2023/10/15 03:56:43;;;;;;;0.30;0.20;;;18.90;99.90;;;;;;5025124;28;20961;-74
2023/10/15 03:59:12;;;;;;;0.30;0.20;;;18.90;99.90;;;;;;5026096;28;20423;-87
2023/10/15 04:01:47;;;;;;;0.30;0.20;;;18.90;99.90;;;;;;5026081;28;20423;-74
2023/10/15 04:04:16;;;;;;;0.30;0.20;;;19.00;99.90;;;;;;5026090;28;20393;-74
2023/10/15 04:06:42;;;;;;;0.30;0.20;;;19.00;99.90;;;;;;5026137;28;20519;-75
2023/10/15 04:11:43;;;;;;;0.30;0.20;;;19.00;99.90;;;;;;5025743;28;20239;-74
2023/10/15 04:14:17;;;;;;;0.30;0.20;;;19.00;99.90;;;;;;5026464;28;20171;-74
2023/10/15 04:16:43;;;;;;;0.30;0.20;;;19.00;99.90;;;;;;5024528;28;20665;-74
2023/10/15 04:19:09;;;;;;;0.30;0.20;;;19.00;99.90;;;;;;5026015;28;20446;-86
2023/10/15 04:21:39;;;;;;;0.40;0.40;;;19.00;99.90;;;;;;5026320;28;20421;-86
2023/10/15 04:24:08;;;;;;;0.30;0.20;;;19.00;99.90;;;;;;5025900;28;20413;-75
2023/10/15 04:26:40;;;;;;;0.30;0.20;;;19.00;99.90;;;;;;5025796;28;20517;-86
2023/10/15 04:29:16;;;;;;;0.30;0.20;;;19.00;99.90;;;;;;5058044;28;20425;-86
2023/10/15 04:31:56;;;;;;;0.30;0.20;;;19.00;99.90;;;;;;5026031;28;20903;-74
2023/10/15 04:34:22;;;;;;;0.30;0.20;;;19.00;99.90;;;;;;5025591;28;20472;-86
2023/10/15 04:36:48;;;;;;;0.30;0.20;;;19.00;99.90;;;;;;5024152;28;20502;-75
2023/10/15 04:39:15;;;;;;;0.30;0.20;;;19.00;99.90;;;;;;5025443;28;20437;-75
2023/10/15 04:41:41;;;;;;;0.30;0.20;;;19.00;99.90;;;;;;5025321;28;20456;-75
2023/10/15 04:44:11;;;;;;;0.30;0.20;;;19.00;99.90;;;;;;5025560;28;20414;-74
2023/10/15 04:46:41;;;;;;;0.30;0.20;;;19.00;99.90;;;;;;5025601;28;20447;-75
2023/10/15 04:49:07;;;;;;;0.30;0.20;;;18.90;99.90;;;;;;5025539;28;20422;-74
2023/10/15 04:51:42;;;;;;;0.30;0.20;;;18.90;99.90;;;;;;5025712;28;20461;-86
2023/10/15 04:54:09;;;;;;;0.30;0.20;;;19.00;99.90;;;;;;5025445;28;20817;-86
2023/10/15 04:56:35;;;;;;;0.30;0.20;;;19.00;99.90;;;;;;5027231;28;20434;-74
2023/10/15 04:59:00;;;;;;;0.30;0.20;;;19.00;99.90;;;;;;5026954;28;21007;-75
2023/10/15 05:01:26;;;;;;;0.30;0.20;;;18.90;99.90;;;;;;5027213;28;20551;-75
2023/10/15 05:03:52;;;;;;;0.30;0.20;;;18.90;99.90;;;;;;5029024;28;20299;-86
2023/10/15 05:06:17;;;;;;;0.30;0.20;;;18.90;99.90;;;;;;5028869;28;20204;-86
2023/10/15 05:08:47;;;;;;;3.03;2.73;;;18.90;99.90;;;;;;5028861;28;20633;-81
2023/10/15 05:11:21;;;;;;;0.30;0.20;;;18.90;99.90;;;;;;5026941;28;20583;-86
2023/10/15 05:13:48;;;;;;;0.30;0.20;;;18.90;99.90;;;;;;5027494;28;20426;-87
2023/10/15 05:16:18;;;;;;;0.30;0.20;;;18.90;99.90;;;;;;5028678;28;20534;-86
2023/10/15 05:18:44;;;;;;;0.30;0.20;;;18.90;99.90;;;;;;5060589;28;20414;-74
2023/10/15 05:21:13;;;;;;;0.30;0.20;;;18.90;99.90;;;;;;5028305;28;20548;-74
2023/10/15 05:23:39;;;;;;;0.30;0.20;;;18.80;99.90;;;;;;5029260;28;20410;-86
2023/10/15 05:26:04;;;;;;;0.30;0.20;;;18.80;99.90;;;;;;5028433;28;20454;-86
2023/10/15 05:28:31;;;;;;;0.30;0.20;;;18.80;99.90;;;;;;5060531;28;20419;-85
2023/10/15 05:31:00;;;;;;;0.30;0.20;;;18.80;99.90;;;;;;5028085;28;20567;-86
2023/10/15 05:33:28;;;;;;;0.30;0.20;;;18.90;99.90;;;;;;5028755;28;20493;-74
2023/10/15 05:35:56;;;;;;;0.30;0.20;;;18.90;99.90;;;;;;5027842;28;20512;-86
2023/10/15 05:38:22;;;;;;;0.30;0.20;;;18.80;99.90;;;;;;5028408;28;20417;-86
2023/10/15 05:40:59;;;;;;;0.30;0.20;;;18.90;99.90;;;;;;5028288;28;20966;-86
2023/10/15 05:43:25;;;;;;;0.30;0.20;;;18.90;99.90;;;;;;5027025;28;20411;-86
2023/10/15 05:45:51;;;;;;;0.30;0.20;;;18.90;99.90;;;;;;5028443;28;20827;-74
2023/10/15 05:48:17;;;;;;;0.30;0.20;;;18.90;99.90;;;;;;5028251;28;20557;-75
2023/10/15 05:50:49;;;;;;;0.30;0.20;;;18.90;99.90;;;;;;5028076;28;20708;-86
2023/10/15 05:53:16;;;;;;;0.30;0.20;;;18.90;99.90;;;;;;5060236;28;20520;-86
2023/10/15 05:55:42;;;;;;;0.30;0.20;;;18.90;99.90;;;;;;5027951;28;20491;-74
2023/10/15 05:58:08;;;;;;;0.30;0.20;;;18.90;99.90;;;;;;5028045;28;20635;-75
2023/10/15 06:00:39;;;;;;;0.30;0.20;;;18.90;99.90;;;;;;5027963;28;20199;-86
2023/10/15 06:03:09;;;;;;;0.30;0.20;;;18.90;99.90;;;;;;5025790;28;20401;-75
2023/10/15 06:05:35;;;;;;;0.30;0.20;;;18.90;99.90;;;;;;5027919;28;20806;-85
2023/10/15 06:08:01;;;;;;;0.30;0.20;;;18.90;99.90;;;;;;5025295;28;20435;-85
2023/10/15 06:10:29;;;;;;;0.30;0.20;;;18.90;99.90;;;;;;5025959;28;20484;-86
2023/10/15 06:12:56;;;;;;;0.30;0.20;;;18.90;99.90;;;;;;5027544;28;20478;-74
2023/10/15 06:15:22;;;;;;;0.30;0.20;;;18.90;99.90;;;;;;5027236;28;20999;-86
2023/10/15 06:17:48;;;;;;;0.30;0.20;;;18.90;99.90;;;;;;5027793;28;20509;-77
2023/10/15 06:20:13;;;;;;;0.30;0.20;;;18.90;99.90;;;;;;5027751;28;20443;-74
2023/10/15 06:22:44;;;;;;;0.30;0.20;;;18.90;99.90;;;;;;5027392;28;20647;-75
2023/10/15 06:25:13;;;;;;;0.30;0.20;;;18.90;99.90;;;;;;5028238;28;20255;-74
2023/10/15 06:27:40;;;;;;;0.30;0.20;;;18.90;99.90;;;;;;5026000;28;20414;-86
2023/10/15 06:30:14;;;;;;;0.40;0.33;;;18.90;99.90;;;;;;5026019;28;20451;-86
2023/10/15 06:32:43;;;;;;;0.30;0.20;;;18.90;99.90;;;;;;5027154;28;20447;-75
2023/10/15 06:35:10;;;;;;;0.30;0.20;;;18.90;99.90;;;;;;5026764;28;20716;-75
2023/10/15 06:37:38;;;;;;;0.30;0.20;;;18.90;99.90;;;;;;5026639;28;20408;-86
2023/10/15 06:40:08;;;;;;;0.30;0.20;;;18.90;99.90;;;;;;5025590;28;20472;-74
2023/10/15 06:42:35;;;;;;;0.30;0.20;;;18.90;99.90;;;;;;5024871;28;20428;-74
2023/10/15 06:45:02;;;;;;;0.30;0.20;;;18.80;99.90;;;;;;5025559;28;20457;-74
2023/10/15 06:47:29;;;;;;;0.30;0.20;;;18.80;99.90;;;;;;5023775;28;20418;-85
2023/10/15 06:49:55;;;;;;;0.30;0.20;;;18.80;99.90;;;;;;5023968;28;20589;-75
2023/10/15 06:52:21;;;;;;;0.30;0.20;;;18.80;99.90;;;;;;5025429;28;20881;-86
2023/10/15 06:54:47;;;;;;;0.30;0.20;;;18.80;99.90;;;;;;5025289;28;20470;-85
2023/10/15 06:57:16;;;;;;;0.30;0.20;;;18.70;99.90;;;;;;5024874;28;20177;-86
2023/10/15 06:59:43;;;;;;;0.30;0.20;;;18.70;99.90;;;;;;5025479;28;20445;-86
2023/10/15 07:02:08;;;;;;;0.30;0.20;;;18.70;99.90;;;;;;5026519;28;20460;-75
2023/10/15 07:04:34;;;;;;;0.30;0.20;;;18.70;99.90;;;;;;5024540;28;20441;-86
2023/10/15 07:06:59;;;;;;;0.30;0.20;;;18.70;99.90;;;;;;5026366;28;20174;-74
2023/10/15 07:09:27;;;;;;;0.30;0.20;;;18.70;99.90;;;;;;5025282;28;20196;-74
2023/10/15 07:11:53;;;;;;;0.30;0.20;;;18.70;99.90;;;;;;5026233;28;20723;-74
2023/10/15 07:14:19;;;;;;;0.97;0.60;;;18.60;99.90;;;;;;5025016;28;20469;-75
2023/10/15 07:16:45;;;;;;;0.30;0.20;;;18.60;99.90;;;;;;5026193;28;20786;-86
2023/10/15 07:19:11;;;;;;;0.30;0.20;;;18.60;99.90;;;;;;5026401;28;20659;-86
2023/10/15 07:21:37;;;;;;;0.30;0.20;;;18.60;99.90;;;;;;5026282;28;20771;-85
2023/10/15 07:24:05;;;;;;;0.30;0.30;;;18.60;99.90;;;;;;5025133;28;20468;-86
2023/10/15 07:26:30;;;;;;;0.30;0.20;;;18.50;99.90;;;;;;5026514;28;20172;-86
2023/10/15 07:28:56;;;;;;;0.30;0.20;;;18.50;99.90;;;;;;5026288;28;20409;-81
2023/10/15 07:31:22;;;;;;;0.30;0.20;;;18.50;99.90;;;;;;5026314;28;20216;-74
2023/10/15 07:33:47;;;;;;;0.30;0.20;;;18.50;99.90;;;;;;5024946;28;20683;-84
2023/10/15 07:36:13;;;;;;;0.30;0.20;;;18.40;99.90;;;;;;5024752;28;20281;-74
2023/10/15 07:38:39;;;;;;;0.30;0.20;;;18.40;99.90;;;;;;5026388;28;20188;-83
2023/10/15 07:41:06;;;;;;;0.30;0.20;;;18.40;99.90;;;;;;5026049;28;20212;-74
2023/10/15 07:43:31;;;;;;;0.30;0.20;;;18.40;99.90;;;;;;5026328;28;20314;-86
2023/10/15 07:45:59;;;;;;;0.30;0.20;;;18.40;99.90;;;;;;5025906;28;20540;-88
2023/10/15 07:48:24;;;;;;;0.30;0.20;;;18.40;99.90;;;;;;5024940;28;20441;-85
2023/10/15 07:50:51;;;;;;;0.30;0.20;;;18.30;99.90;;;;;;5024443;28;20960;-74
2023/10/15 07:53:16;;;;;;;0.30;0.20;;;18.30;99.90;;;;;;5025041;28;20960;-84
2023/10/15 07:55:42;;;;;;;0.30;0.20;;;18.30;99.90;;;;;;5026155;28;20473;-74
2023/10/15 07:58:09;;;;;;;0.30;0.20;;;18.20;99.90;;;;;;5026127;28;20178;-85
2023/10/15 08:00:35;;;;;;;0.30;0.20;;;18.20;99.90;;;;;;5025833;28;20250;-86
2023/10/15 08:03:01;;;;;;;0.30;0.20;;;18.20;99.90;;;;;;5025555;28;20815;-75
2023/10/15 08:05:31;;;;;;;0.30;0.20;;;18.20;99.90;;;;;;5024417;28;20207;-75
2023/10/15 08:07:57;;;;;;;0.30;0.20;;;18.20;99.90;;;;;;5025969;28;20923;-86
2023/10/15 08:10:24;;;;;;;0.30;0.20;;;18.20;99.90;;;;;;5025738;28;20820;-74
2023/10/15 08:12:52;;;;;;;0.30;0.20;;;18.20;99.90;;;;;;5025832;28;20424;-74
2023/10/15 08:15:18;;;;;;;0.30;0.20;;;18.20;99.90;;;;;;5023961;28;21064;-75
2023/10/15 08:17:44;;;;;;;0.30;0.20;;;18.20;99.90;;;;;;5027406;28;20798;-74
2023/10/15 08:20:10;;;;;;;0.30;0.20;;;18.10;99.90;;;;;;5025760;28;20441;-85
2023/10/15 08:22:36;;;;;;;0.30;0.20;;;18.10;99.90;;;;;;5025733;28;20818;-85
2023/10/15 08:25:02;;;;;;;0.30;0.20;;;18.10;99.90;;;;;;5024504;28;20452;-74
2023/10/15 08:27:27;;;;;;;0.30;0.20;;;18.00;99.90;;;;;;5026003;28;20910;-84
2023/10/15 08:29:53;;;;;;;0.30;0.20;;;18.00;99.90;;;;;;5026192;28;20206;-74
2023/10/15 08:32:20;;;;;;;0.70;0.70;;;18.00;99.90;;;;;;5027320;28;20767;-76
2023/10/15 08:34:47;;;;;;;0.90;0.90;;;18.00;99.90;;;;;;5029670;28;20260;-74
2023/10/15 08:37:13;;;;;;;0.40;0.40;;;18.00;99.90;;;;;;5029231;28;20951;-74
2023/10/15 08:39:40;;;;;;;0.30;0.20;;;18.00;99.90;;;;;;5029738;28;20566;-74
2023/10/15 08:42:13;;;;;;;0.30;0.20;;;17.90;99.90;;;;;;5029401;28;20913;-86
2023/10/15 08:44:42;;;;;;;0.30;0.20;;;17.90;99.90;;;;;;5029517;28;20952;-86
2023/10/15 08:47:10;;;;;;;0.30;0.20;;;17.90;99.90;;;;;;5029190;28;20409;-86
2023/10/15 08:49:39;;;;;;;0.30;0.20;;;17.90;99.90;;;;;;5029601;28;20472;-74
2023/10/15 08:52:06;;;;;;;0.30;0.20;;;17.80;99.90;;;;;;5027637;28;20404;-74
2023/10/15 08:54:38;;;;;;;0.30;0.30;;;17.80;99.90;;;;;;5029336;28;20736;-74
2023/10/15 08:57:07;;;;;;;0.30;0.20;;;17.70;99.90;;;;;;5028867;28;20403;-74
2023/10/15 08:59:33;;;;;;;0.30;0.20;;;17.70;99.90;;;;;;5029264;28;20832;-86
2023/10/15 09:01:59;;;;;;;0.30;0.20;;;17.70;99.90;;;;;;5029867;28;20427;-84
2023/10/15 09:04:27;;;;;;;0.30;0.20;;;17.60;99.90;;;;;;5029220;28;20435;-74
2023/10/15 09:06:53;;;;;;;0.30;0.20;;;17.60;99.90;;;;;;5027374;28;20591;-75
2023/10/15 09:09:19;;;;;;;0.30;0.20;;;17.50;99.90;;;;;;5027718;28;20419;-75
2023/10/15 09:11:44;;;;;;;0.80;0.60;;;17.50;99.90;;;;;;5027098;28;20996;-86
2023/10/15 09:14:13;;;;;;;0.30;0.20;;;17.50;99.90;;;;;;5029072;28;20171;-87
2023/10/15 09:16:48;;;;;;;0.37;0.37;;;17.50;99.90;;;;;;5028455;28;20411;-74
2023/10/15 09:19:14;;;;;;;0.30;0.20;;;17.50;99.90;;;;;;5028897;28;20765;-75
2023/10/15 09:21:40;;;;;;;0.30;0.20;;;17.50;99.90;;;;;;5029108;28;20427;-86
2023/10/15 09:24:06;;;;;;;0.30;0.20;;;17.40;99.90;;;;;;5027288;28;20409;-74
2023/10/15 09:26:37;;;;;;;0.43;0.43;;;17.30;99.90;;;;;;5027025;28;20952;-87
2023/10/15 09:29:20;;;;;;;0.30;0.20;;;17.20;99.90;;;;;;5028941;28;20403;-74
2023/10/15 09:31:47;;;;;;;0.30;0.20;;;17.10;99.90;;;;;;5028587;28;20419;-74
2023/10/15 09:34:12;;;;;;;0.30;0.20;;;16.90;99.90;;;;;;5028413;28;20449;-74
2023/10/15 09:36:38;;;;;;;0.30;0.20;;;16.80;99.90;;;;;;5028264;28;20402;-74
2023/10/15 09:39:13;;;;;;;0.30;0.20;;;16.80;99.90;;;;;;5027183;28;20212;-86
2023/10/15 09:41:41;;;;;;;0.30;0.20;;;16.70;99.90;;;;;;5026940;28;20341;-86
2023/10/15 09:44:16;;;;;;;0.30;0.20;;;16.70;99.90;;;;;;5028342;28;20439;-85
2023/10/15 09:46:43;;;;;;;0.30;0.30;;;16.70;99.90;;;;;;5028206;28;20411;-86
2023/10/15 09:49:13;;;;;;;0.30;0.20;;;16.70;99.90;;;;;;5028265;28;20404;-74
2023/10/15 09:51:43;;;;;;;0.30;0.20;;;16.70;99.90;;;;;;5026908;28;20528;-85
2023/10/15 09:54:14;;;;;;;0.30;0.20;;;16.70;99.90;;;;;;5026866;28;20440;-87
2023/10/15 09:56:41;;;;;;;0.30;0.20;;;16.70;99.90;;;;;;5028450;28;20455;-87
2023/10/15 09:59:07;;;;;;;0.30;0.20;;;16.70;99.90;;;;;;5028201;28;20675;-74
2023/10/15 10:01:36;;;;;;;0.30;0.20;;;16.70;99.90;;;;;;5028397;28;20427;-86
2023/10/15 10:04:19;;;;;;;0.30;0.20;;;16.70;99.90;;;;;;5028124;28;20488;-74
2023/10/15 10:06:47;;;;;;;0.30;0.20;;;16.80;99.90;;;;;;5027753;28;20493;-85
2023/10/15 10:09:46;;;;;;;0.30;0.20;;;16.80;99.90;;;;;;5027390;28;20905;-74
2023/10/15 10:12:37;;;;;;;0.30;0.20;;;16.90;99.90;;;;;;5027649;28;20522;-74
2023/10/15 10:15:11;;;;;;;1.90;1.13;;;16.90;99.90;;;;;;5027935;28;20534;-84
2023/10/15 10:17:38;;;;;;;0.30;0.20;;;16.90;99.90;;;;;;5027306;28;20912;-74
2023/10/15 10:20:11;;;;;;;0.30;0.20;;;16.90;99.90;;;;;;5026218;28;20949;-74
2023/10/15 10:22:38;;;;;;;0.30;0.20;;;16.90;99.90;;;;;;5027546;28;20897;-74
2023/10/15 10:25:06;;;;;;;0.30;0.20;;;16.90;99.90;;;;;;5027824;28;20522;-74
2023/10/15 10:27:59;;;;;;;0.30;0.20;;;16.90;99.90;;;;;;5027665;28;20638;-74
2023/10/15 10:30:30;;;;;;;0.30;0.20;;;16.90;99.90;;;;;;5027458;28;21087;-74
2023/10/15 10:32:57;;;;;;;0.30;0.20;;;16.90;99.90;;;;;;5026533;28;20905;-85
2023/10/15 10:35:24;;;;;;;0.30;0.20;;;16.90;99.90;;;;;;5027349;28;21039;-76
2023/10/15 10:38:06;;;;;;;0.30;0.20;;;16.90;99.90;;;;;;5027398;28;20404;-86
2023/10/15 10:40:48;;;;;;;0.30;0.20;;;16.90;99.90;;;;;;5027390;28;20444;-86
2023/10/15 10:43:17;;;;;;;0.30;0.20;;;16.80;99.90;;;;;;5027256;28;20442;-87
2023/10/15 10:45:50;;;;;;;0.30;0.20;;;16.80;99.90;;;;;;5025571;28;20738;-75
2023/10/15 10:48:29;;;;;;;0.30;0.20;;;16.80;99.90;;;;;;5025670;28;20522;-74
2023/10/15 10:51:13;;;;;;;0.30;0.20;;;16.70;99.90;;;;;;5025580;28;20448;-74
2023/10/15 10:53:59;;;;;;;0.30;0.30;;;16.60;99.90;;;;;;5025974;28;20419;-87
2023/10/15 10:56:40;;;;;;;0.30;0.20;;;16.60;99.90;;;;;;5025274;28;21005;-86
2023/10/15 10:59:13;;;;;;;0.30;0.20;;;16.50;99.90;;;;;;5027084;28;20420;-74
2023/10/15 11:01:45;;;;;;;0.30;0.20;;;16.40;99.90;;;;;;5026984;28;20730;-86
2023/10/15 11:04:20;;;;;;;0.30;0.20;;;16.40;99.90;;;;;;5025358;28;20944;-87
2023/10/15 11:06:46;;;;;;;0.30;0.20;;;16.40;99.90;;;;;;5027859;28;20834;-74
2023/10/15 11:09:15;;;;;;;0.30;0.20;;;16.30;99.90;;;;;;5026998;28;20600;-83
2023/10/15 11:11:49;;;;;;;0.30;0.20;;;16.30;99.90;;;;;;5025590;28;20243;-74
2023/10/15 11:14:17;;;;;;;0.40;0.20;;;16.20;99.90;;;;;;5026582;28;20683;-74
2023/10/15 11:16:43;;;;;;;0.30;0.20;;;16.20;99.90;;;;;;5026518;28;20426;-87
2023/10/15 11:19:19;;;;;;;0.30;0.20;;;16.20;99.90;;;;;;5027123;28;20396;-74
2023/10/15 11:21:49;;;;;;;0.30;0.20;;;16.10;99.90;;;;;;5026061;28;20419;-74
2023/10/15 11:24:16;;;;;;;0.30;0.20;;;16.10;99.90;;;;;;5025300;28;21002;-86
2023/10/15 11:26:43;;;;;;;0.30;0.20;;;16.10;99.90;;;;;;5026595;28;20423;-87
2023/10/15 11:29:10;;;;;;;0.30;0.20;;;16.10;99.90;;;;;;5025651;28;20404;-86
2023/10/15 11:31:37;;;;;;;0.30;0.20;;;16.10;99.90;;;;;;5026543;28;20559;-87
2023/10/15 11:34:05;;;;;;;0.40;0.20;;;16.10;99.90;;;;;;5025336;28;20386;-86
2023/10/15 11:36:35;;;;;;;0.30;0.20;;;16.10;99.90;;;;;;5026063;28;21015;-87
2023/10/15 11:39:03;;;;;;;0.30;0.20;;;16.10;99.90;;;;;;5026593;28;20494;-86
2023/10/15 11:41:32;;;;;;;0.30;0.20;;;16.10;99.90;;;;;;5025956;28;20813;-74
2023/10/15 11:44:03;;;;;;;0.30;0.20;;;16.10;99.90;;;;;;5026506;28;20768;-86
2023/10/15 11:46:30;;;;;;;0.30;0.20;;;16.10;99.90;;;;;;5026276;28;20423;-74
2023/10/15 11:49:01;;;;;;;0.30;0.20;;;16.10;99.90;;;;;;5024987;28;20419;-74
2023/10/15 11:51:31;;;;;;;0.30;0.20;;;16.10;99.90;;;;;;5024711;28;20432;-74
2023/10/15 11:54:01;;;;;;;0.30;0.20;;;16.10;99.90;;;;;;5026476;28;20939;-74
2023/10/15 11:56:27;;;;;;;0.30;0.20;;;16.00;99.90;;;;;;5024870;28;20904;-74
2023/10/15 11:58:54;;;;;;;0.30;0.20;;;16.00;99.90;;;;;;5024788;28;20477;-86
2023/10/15 12:01:20;;;;;;;0.37;0.30;;;16.00;99.90;;;;;;5026206;28;20440;-87
2023/10/15 12:03:48;;;;;;;0.30;0.30;;;15.90;99.90;;;;;;5026138;28;20399;-87
2023/10/15 12:06:16;;;;;;;0.30;0.20;;;16.00;99.90;;;;;;5026044;28;20495;-75
2023/10/15 12:08:45;;;;;;;0.30;0.20;;;16.00;99.90;;;;;;5030349;28;20944;-74
2023/10/15 12:11:14;;;;;;;0.30;0.20;;;16.00;99.90;;;;;;5027985;28;20988;-86
2023/10/15 12:13:41;;;;;;;0.30;0.20;;;16.00;99.90;;;;;;5029055;28;20404;-74
2023/10/15 12:16:07;;;;;;;0.30;0.20;;;16.10;99.90;;;;;;5029749;28;20589;-87
2023/10/15 12:18:33;;;;;;;0.30;0.20;;;16.10;99.90;;;;;;5028649;28;20916;-74
2023/10/15 12:20:59;;;;;;;0.30;0.20;;;16.10;99.90;;;;;;5029921;28;20442;-75
2023/10/15 12:23:27;;;;;;;0.30;0.20;;;16.10;99.90;;;;;;5030111;28;20648;-74
2023/10/15 12:25:52;;;;;;;0.30;0.20;;;16.20;99.90;;;;;;5029968;28;20447;-74
2023/10/15 12:28:18;;;;;;;0.30;0.30;;;16.20;99.90;;;;;;5030197;28;20570;-81
2023/10/15 12:30:43;;;;;;;0.30;0.20;;;16.20;99.90;;;;;;5029756;28;20209;-87
2023/10/15 12:33:09;;;;;;;0.30;0.30;;;16.20;99.90;;;;;;5029634;28;20356;-85
2023/10/15 12:35:35;;;;;;;0.30;0.20;;;16.20;99.90;;;;;;5029449;28;20363;-87
2023/10/15 12:38:05;;;;;;;0.30;0.20;;;16.20;99.90;;;;;;5028339;28;20540;-75
2023/10/15 12:40:32;;;;;;;0.30;0.20;;;16.10;99.90;;;;;;5029333;28;20198;-87
2023/10/15 12:42:59;;;;;;;0.30;0.20;;;16.20;99.90;;;;;;5029731;28;20482;-87
2023/10/15 12:45:25;;;;;;;0.30;0.20;;;16.20;99.90;;;;;;5029399;28;20435;-87
2023/10/15 12:47:51;;;;;;;0.30;0.20;;;16.20;99.90;;;;;;5029338;28;20426;-86
2023/10/15 12:50:17;;;;;;;0.40;0.20;;;16.20;99.90;;;;;;5029462;28;20654;-87
2023/10/15 12:52:45;;;;;;;0.30;0.20;;;16.20;99.90;;;;;;5028031;28;20224;-74
2023/10/15 12:55:20;;;;;;;0.30;0.20;;;16.30;99.90;;;;;;5027620;28;20574;-87
2023/10/15 12:57:47;;;;;;;0.40;0.40;;;16.20;99.90;;;;;;5029372;28;20398;-74
2023/10/15 13:00:21;;;;;;;0.30;0.30;;;16.20;99.90;;;;;;5029172;28;20450;-75
2023/10/15 13:02:50;;;;;;;0.30;0.20;;;16.20;99.90;;;;;;5029305;28;20408;-87
2023/10/15 13:05:19;;;;;;;0.30;0.20;;;16.20;99.90;;;;;;5027757;28;20451;-87
2023/10/15 13:07:46;;;;;;;0.30;0.20;;;16.30;99.90;;;;;;5029155;28;20779;-74